Ahsahka, Idaho
Current Conditions -  °F | °C
As of 6:56 PM on Wednesday 22 Oct 2014 (Local Time) from KLWS Reporting Station
Overcast Overcast  
Wind Chill: 66°   Ceiling: 10000
Heat Index: 66°   Visibility: 10mi
Dew Point: 34°   Wind: 6mph
Humidity: 30%   Direction: 190°S
Pressure: 29.78"   Gusts: NA
Location:  46.51°N, 116.35°W
Report Text: KLWS 230156Z 19005KT 10SM OVC100 19/01 A2978 RMK AO2 SLP086 T01890011
Loading
Personal Weather Stations






























Interactive Weather Map
Tropical Storm Tracking
New forecast layout! Learn more

10-Day Weather Forecast

Advertisements
Track Severe Weather on mobile